sensor_id;sensor_type;location;lat;lon;timestamp;temperature;humidity
6792;DHT22;3433;48.730;9.108;2022-09-21T00:00:20;9.10;99.90
6792;DHT22;3433;48.730;9.108;2022-09-21T00:03:07;9.10;99.90
6792;DHT22;3433;48.730;9.108;2022-09-21T00:06:01;9.00;99.90
6792;DHT22;3433;48.730;9.108;2022-09-21T00:08:49;9.00;99.90
6792;DHT22;3433;48.730;9.108;2022-09-21T00:11:36;9.00;99.90
6792;DHT22;3433;48.730;9.108;2022-09-21T00:14:23;8.90;99.90
6792;DHT22;3433;48.730;9.108;2022-09-21T00:17:12;8.90;99.90
6792;DHT22;3433;48.730;9.108;2022-09-21T00:20:00;8.90;99.90
6792;DHT22;3433;48.730;9.108;2022-09-21T00:22:50;8.90;99.90
6792;DHT22;3433;48.730;9.108;2022-09-21T00:25:37;8.80;99.90
6792;DHT22;3433;48.730;9.108;2022-09-21T00:28:25;8.80;99.90
6792;DHT22;3433;48.730;9.108;2022-09-21T00:31:14;8.80;99.90
6792;DHT22;3433;48.730;9.108;2022-09-21T00:34:03;8.80;99.90
6792;DHT22;3433;48.730;9.108;2022-09-21T00:36:52;8.80;99.90
6792;DHT22;3433;48.730;9.108;2022-09-21T00:39:39;8.70;99.90
6792;DHT22;3433;48.730;9.108;2022-09-21T00:42:29;8.70;99.90
6792;DHT22;3433;48.730;9.108;2022-09-21T00:45:16;8.70;99.90
6792;DHT22;3433;48.730;9.108;2022-09-21T00:48:07;8.70;99.90
6792;DHT22;3433;48.730;9.108;2022-09-21T00:50:58;8.60;99.90
6792;DHT22;3433;48.730;9.108;2022-09-21T00:53:51;8.60;99.90
6792;DHT22;3433;48.730;9.108;2022-09-21T00:56:40;8.50;99.90
6792;DHT22;3433;48.730;9.108;2022-09-21T00:59:30;8.50;99.90
6792;DHT22;3433;48.730;9.108;2022-09-21T01:02:19;8.50;99.90
6792;DHT22;3433;48.730;9.108;2022-09-21T01:05:08;8.50;99.90
6792;DHT22;3433;48.730;9.108;2022-09-21T01:07:58;8.50;99.90
6792;DHT22;3433;48.730;9.108;2022-09-21T01:14:36;8.40;99.90
6792;DHT22;3433;48.730;9.108;2022-09-21T01:17:33;8.40;99.90
6792;DHT22;3433;48.730;9.108;2022-09-21T01:30:14;8.20;99.90
6792;DHT22;3433;48.730;9.108;2022-09-21T01:33:05;8.30;99.90
6792;DHT22;3433;48.730;9.108;2022-09-21T01:35:58;8.20;99.90
6792;DHT22;3433;48.730;9.108;2022-09-21T01:38:48;8.20;99.90
6792;DHT22;3433;48.730;9.108;2022-09-21T01:41:39;8.20;99.90
6792;DHT22;3433;48.730;9.108;2022-09-21T01:44:28;8.20;99.90
6792;DHT22;3433;48.730;9.108;2022-09-21T01:47:20;8.20;99.90
6792;DHT22;3433;48.730;9.108;2022-09-21T01:50:09;8.10;99.90
6792;DHT22;3433;48.730;9.108;2022-09-21T01:53:00;8.10;99.90
6792;DHT22;3433;48.730;9.108;2022-09-21T01:55:52;8.10;99.90
6792;DHT22;3433;48.730;9.108;2022-09-21T01:58:43;8.10;99.90
6792;DHT22;3433;48.730;9.108;2022-09-21T02:01:36;8.10;99.90
6792;DHT22;3433;48.730;9.108;2022-09-21T02:04:26;8.10;99.90
6792;DHT22;3433;48.730;9.108;2022-09-21T02:07:15;8.00;99.90
6792;DHT22;3433;48.730;9.108;2022-09-21T02:10:04;8.00;99.90
6792;DHT22;3433;48.730;9.108;2022-09-21T02:12:53;8.00;99.90
6792;DHT22;3433;48.730;9.108;2022-09-21T02:15:57;8.00;99.90
6792;DHT22;3433;48.730;9.108;2022-09-21T02:18:52;8.00;99.90
6792;DHT22;3433;48.730;9.108;2022-09-21T02:21:55;7.90;99.90
6792;DHT22;3433;48.730;9.108;2022-09-21T02:24:46;7.90;99.90
6792;DHT22;3433;48.730;9.108;2022-09-21T02:27:40;7.90;99.90
6792;DHT22;3433;48.730;9.108;2022-09-21T02:30:30;7.90;99.90
6792;DHT22;3433;48.730;9.108;2022-09-21T02:33:25;7.90;99.90
6792;DHT22;3433;48.730;9.108;2022-09-21T02:36:19;7.90;99.90
6792;DHT22;3433;48.730;9.108;2022-09-21T02:39:13;7.90;99.90
6792;DHT22;3433;48.730;9.108;2022-09-21T02:42:07;7.90;99.90
6792;DHT22;3433;48.730;9.108;2022-09-21T02:44:57;7.90;99.90
6792;DHT22;3433;48.730;9.108;2022-09-21T02:47:51;7.90;99.90
6792;DHT22;3433;48.730;9.108;2022-09-21T02:50:42;7.90;99.90
6792;DHT22;3433;48.730;9.108;2022-09-21T02:53:33;7.90;99.90
6792;DHT22;3433;48.730;9.108;2022-09-21T02:56:24;7.90;99.90
6792;DHT22;3433;48.730;9.108;2022-09-21T02:59:11;7.90;99.90
6792;DHT22;3433;48.730;9.108;2022-09-21T03:02:00;7.90;99.90
6792;DHT22;3433;48.730;9.108;2022-09-21T03:04:47;7.80;99.90
6792;DHT22;3433;48.730;9.108;2022-09-21T03:07:35;7.80;99.90
6792;DHT22;3433;48.730;9.108;2022-09-21T03:10:22;7.80;99.90
6792;DHT22;3433;48.730;9.108;2022-09-21T03:13:12;7.80;99.90
6792;DHT22;3433;48.730;9.108;2022-09-21T03:16:00;7.80;99.90
6792;DHT22;3433;48.730;9.108;2022-09-21T03:18:47;7.80;99.90
6792;DHT22;3433;48.730;9.108;2022-09-21T03:21:34;7.80;99.90
6792;DHT22;3433;48.730;9.108;2022-09-21T03:24:22;7.70;99.90
6792;DHT22;3433;48.730;9.108;2022-09-21T03:27:23;7.70;99.90
6792;DHT22;3433;48.730;9.108;2022-09-21T03:30:12;7.70;99.90
6792;DHT22;3433;48.730;9.108;2022-09-21T03:32:59;7.60;99.90
6792;DHT22;3433;48.730;9.108;2022-09-21T03:35:47;7.60;99.90
6792;DHT22;3433;48.730;9.108;2022-09-21T03:38:35;7.60;99.90
6792;DHT22;3433;48.730;9.108;2022-09-21T03:41:22;7.60;99.90
6792;DHT22;3433;48.730;9.108;2022-09-21T03:44:09;7.50;99.90
6792;DHT22;3433;48.730;9.108;2022-09-21T03:46:58;7.50;99.90
6792;DHT22;3433;48.730;9.108;2022-09-21T03:49:46;7.50;99.90
6792;DHT22;3433;48.730;9.108;2022-09-21T03:52:33;7.50;99.90
6792;DHT22;3433;48.730;9.108;2022-09-21T03:55:21;7.50;99.90
6792;DHT22;3433;48.730;9.108;2022-09-21T03:58:09;7.50;99.90
6792;DHT22;3433;48.730;9.108;2022-09-21T04:01:00;7.40;99.90
6792;DHT22;3433;48.730;9.108;2022-09-21T04:03:49;7.40;99.90
6792;DHT22;3433;48.730;9.108;2022-09-21T04:06:36;7.40;99.90
6792;DHT22;3433;48.730;9.108;2022-09-21T04:09:24;7.30;99.90
6792;DHT22;3433;48.730;9.108;2022-09-21T04:12:11;7.40;99.90
6792;DHT22;3433;48.730;9.108;2022-09-21T04:14:58;7.30;99.90
6792;DHT22;3433;48.730;9.108;2022-09-21T04:17:46;7.30;99.90
6792;DHT22;3433;48.730;9.108;2022-09-21T04:20:38;7.30;99.90
6792;DHT22;3433;48.730;9.108;2022-09-21T04:23:26;7.20;99.90
6792;DHT22;3433;48.730;9.108;2022-09-21T04:26:19;7.20;99.90
6792;DHT22;3433;48.730;9.108;2022-09-21T04:29:08;7.20;99.90
6792;DHT22;3433;48.730;9.108;2022-09-21T04:31:55;7.20;99.90
6792;DHT22;3433;48.730;9.108;2022-09-21T04:34:43;7.20;99.90
6792;DHT22;3433;48.730;9.108;2022-09-21T04:37:31;7.10;99.90
6792;DHT22;3433;48.730;9.108;2022-09-21T04:40:18;7.10;99.90
6792;DHT22;3433;48.730;9.108;2022-09-21T04:43:06;7.10;99.90
6792;DHT22;3433;48.730;9.108;2022-09-21T04:45:53;7.10;99.90
6792;DHT22;3433;48.730;9.108;2022-09-21T04:48:41;7.10;99.90
6792;DHT22;3433;48.730;9.108;2022-09-21T04:51:28;7.10;99.90
6792;DHT22;3433;48.730;9.108;2022-09-21T04:54:17;7.10;99.90
6792;DHT22;3433;48.730;9.108;2022-09-21T04:57:05;7.10;99.90
6792;DHT22;3433;48.730;9.108;2022-09-21T04:59:52;7.10;99.90
6792;DHT22;3433;48.730;9.108;2022-09-21T05:02:40;7.10;99.90
6792;DHT22;3433;48.730;9.108;2022-09-21T05:05:27;7.10;99.90
6792;DHT22;3433;48.730;9.108;2022-09-21T05:08:14;7.10;99.90
6792;DHT22;3433;48.730;9.108;2022-09-21T05:11:04;7.10;99.90
6792;DHT22;3433;48.730;9.108;2022-09-21T05:13:50;7.10;99.90
6792;DHT22;3433;48.730;9.108;2022-09-21T05:16:38;7.10;99.90
6792;DHT22;3433;48.730;9.108;2022-09-21T05:19:25;7.10;99.90
6792;DHT22;3433;48.730;9.108;2022-09-21T05:22:12;7.10;99.90
6792;DHT22;3433;48.730;9.108;2022-09-21T05:24:59;7.10;99.90
6792;DHT22;3433;48.730;9.108;2022-09-21T05:27:48;7.10;99.90
6792;DHT22;3433;48.730;9.108;2022-09-21T05:30:35;7.10;99.90
6792;DHT22;3433;48.730;9.108;2022-09-21T05:33:25;7.10;99.90
6792;DHT22;3433;48.730;9.108;2022-09-21T05:36:26;7.10;99.90
6792;DHT22;3433;48.730;9.108;2022-09-21T05:39:18;7.10;99.90
6792;DHT22;3433;48.730;9.108;2022-09-21T05:42:07;7.10;99.90
6792;DHT22;3433;48.730;9.108;2022-09-21T05:44:57;7.10;99.90
6792;DHT22;3433;48.730;9.108;2022-09-21T05:47:55;7.10;99.90
6792;DHT22;3433;48.730;9.108;2022-09-21T05:50:55;7.20;99.90
6792;DHT22;3433;48.730;9.108;2022-09-21T05:53:51;7.10;99.90
6792;DHT22;3433;48.730;9.108;2022-09-21T05:56:49;7.20;99.90
6792;DHT22;3433;48.730;9.108;2022-09-21T05:59:50;7.30;99.90
6792;DHT22;3433;48.730;9.108;2022-09-21T06:02:54;7.20;99.90
6792;DHT22;3433;48.730;9.108;2022-09-21T06:05:44;7.30;99.90
6792;DHT22;3433;48.730;9.108;2022-09-21T06:08:31;7.40;99.90
6792;DHT22;3433;48.730;9.108;2022-09-21T06:11:18;7.50;99.90
6792;DHT22;3433;48.730;9.108;2022-09-21T06:14:05;7.50;99.90
6792;DHT22;3433;48.730;9.108;2022-09-21T06:16:53;7.60;99.90
6792;DHT22;3433;48.730;9.108;2022-09-21T06:19:41;7.60;99.90
6792;DHT22;3433;48.730;9.108;2022-09-21T06:22:29;7.70;99.90
6792;DHT22;3433;48.730;9.108;2022-09-21T06:25:19;7.80;99.90
6792;DHT22;3433;48.730;9.108;2022-09-21T06:28:08;7.90;99.90
6792;DHT22;3433;48.730;9.108;2022-09-21T06:30:56;8.10;99.90
6792;DHT22;3433;48.730;9.108;2022-09-21T06:33:44;8.10;99.90
6792;DHT22;3433;48.730;9.108;2022-09-21T06:36:33;8.20;99.90
6792;DHT22;3433;48.730;9.108;2022-09-21T06:39:20;8.30;99.90
6792;DHT22;3433;48.730;9.108;2022-09-21T06:42:07;8.50;99.90
6792;DHT22;3433;48.730;9.108;2022-09-21T06:44:55;8.60;99.90
6792;DHT22;3433;48.730;9.108;2022-09-21T06:47:45;8.80;99.90
6792;DHT22;3433;48.730;9.108;2022-09-21T06:50:33;9.00;99.90
6792;DHT22;3433;48.730;9.108;2022-09-21T06:53:21;9.20;99.90
6792;DHT22;3433;48.730;9.108;2022-09-21T06:56:09;9.50;99.90
6792;DHT22;3433;48.730;9.108;2022-09-21T06:58:57;9.50;99.90
6792;DHT22;3433;48.730;9.108;2022-09-21T07:01:44;9.80;99.90
6792;DHT22;3433;48.730;9.108;2022-09-21T07:04:31;9.90;99.90
6792;DHT22;3433;48.730;9.108;2022-09-21T07:07:19;9.90;99.90
6792;DHT22;3433;48.730;9.108;2022-09-21T07:10:08;10.00;99.90
6792;DHT22;3433;48.730;9.108;2022-09-21T07:12:55;10.20;99.90
6792;DHT22;3433;48.730;9.108;2022-09-21T07:15:48;10.20;99.90
6792;DHT22;3433;48.730;9.108;2022-09-21T07:18:36;10.40;99.90
6792;DHT22;3433;48.730;9.108;2022-09-21T07:21:23;10.30;99.90
6792;DHT22;3433;48.730;9.108;2022-09-21T07:24:11;10.40;99.90
6792;DHT22;3433;48.730;9.108;2022-09-21T07:27:01;10.50;99.90
6792;DHT22;3433;48.730;9.108;2022-09-21T07:29:48;10.70;99.90
6792;DHT22;3433;48.730;9.108;2022-09-21T07:32:35;10.80;99.90
6792;DHT22;3433;48.730;9.108;2022-09-21T07:35:26;10.80;99.90
6792;DHT22;3433;48.730;9.108;2022-09-21T07:38:14;11.10;99.90
6792;DHT22;3433;48.730;9.108;2022-09-21T07:41:03;11.10;99.90
6792;DHT22;3433;48.730;9.108;2022-09-21T07:43:53;11.30;99.90
6792;DHT22;3433;48.730;9.108;2022-09-21T07:46:40;11.50;99.90
6792;DHT22;3433;48.730;9.108;2022-09-21T07:49:27;11.60;99.90
6792;DHT22;3433;48.730;9.108;2022-09-21T07:52:14;11.70;99.90
6792;DHT22;3433;48.730;9.108;2022-09-21T07:55:02;11.70;99.90
6792;DHT22;3433;48.730;9.108;2022-09-21T07:57:49;11.80;99.90
6792;DHT22;3433;48.730;9.108;2022-09-21T08:00:55;12.00;99.90
6792;DHT22;3433;48.730;9.108;2022-09-21T08:03:42;12.20;99.90
6792;DHT22;3433;48.730;9.108;2022-09-21T08:06:31;12.10;99.90
6792;DHT22;3433;48.730;9.108;2022-09-21T08:09:20;12.20;99.90
6792;DHT22;3433;48.730;9.108;2022-09-21T08:12:07;12.40;99.90
6792;DHT22;3433;48.730;9.108;2022-09-21T08:14:55;12.50;99.90
6792;DHT22;3433;48.730;9.108;2022-09-21T08:17:44;12.60;99.90
6792;DHT22;3433;48.730;9.108;2022-09-21T08:20:32;12.80;99.90
6792;DHT22;3433;48.730;9.108;2022-09-21T08:23:19;12.90;99.90
6792;DHT22;3433;48.730;9.108;2022-09-21T08:26:07;13.00;99.90
6792;DHT22;3433;48.730;9.108;2022-09-21T08:28:55;13.30;99.90
6792;DHT22;3433;48.730;9.108;2022-09-21T08:31:43;13.40;99.90
6792;DHT22;3433;48.730;9.108;2022-09-21T08:34:32;13.60;99.90
6792;DHT22;3433;48.730;9.108;2022-09-21T08:37:19;13.60;99.90
6792;DHT22;3433;48.730;9.108;2022-09-21T08:40:09;13.80;99.90
6792;DHT22;3433;48.730;9.108;2022-09-21T08:43:01;14.00;99.90
6792;DHT22;3433;48.730;9.108;2022-09-21T08:45:49;13.90;99.90
6792;DHT22;3433;48.730;9.108;2022-09-21T08:48:42;14.00;99.90
6792;DHT22;3433;48.730;9.108;2022-09-21T08:51:37;14.10;99.90
6792;DHT22;3433;48.730;9.108;2022-09-21T08:54:33;14.20;99.90
6792;DHT22;3433;48.730;9.108;2022-09-21T08:57:22;13.90;99.90
6792;DHT22;3433;48.730;9.108;2022-09-21T09:00:14;14.10;99.70
6792;DHT22;3433;48.730;9.108;2022-09-21T09:03:26;14.30;99.90
6792;DHT22;3433;48.730;9.108;2022-09-21T09:06:20;14.30;99.90
6792;DHT22;3433;48.730;9.108;2022-09-21T09:09:22;14.60;99.20
6792;DHT22;3433;48.730;9.108;2022-09-21T09:12:23;14.70;99.50
6792;DHT22;3433;48.730;9.108;2022-09-21T09:15:34;14.90;99.30
6792;DHT22;3433;48.730;9.108;2022-09-21T09:18:33;15.10;99.90
6792;DHT22;3433;48.730;9.108;2022-09-21T09:21:25;14.80;98.60
6792;DHT22;3433;48.730;9.108;2022-09-21T09:24:18;14.90;98.20
6792;DHT22;3433;48.730;9.108;2022-09-21T09:27:15;14.80;97.50
6792;DHT22;3433;48.730;9.108;2022-09-21T09:30:13;15.00;97.30
6792;DHT22;3433;48.730;9.108;2022-09-21T09:33:05;15.10;97.70
6792;DHT22;3433;48.730;9.108;2022-09-21T09:35:59;15.10;97.80
6792;DHT22;3433;48.730;9.108;2022-09-21T09:38:53;15.40;98.10
6792;DHT22;3433;48.730;9.108;2022-09-21T09:45:28;15.70;97.80
6792;DHT22;3433;48.730;9.108;2022-09-21T09:48:40;15.40;97.50
6792;DHT22;3433;48.730;9.108;2022-09-21T09:51:30;15.40;96.30
6792;DHT22;3433;48.730;9.108;2022-09-21T09:54:25;15.90;97.30
6792;DHT22;3433;48.730;9.108;2022-09-21T09:57:15;15.90;96.20
6792;DHT22;3433;48.730;9.108;2022-09-21T10:00:11;16.20;97.20
6792;DHT22;3433;48.730;9.108;2022-09-21T10:02:59;16.30;95.60
6792;DHT22;3433;48.730;9.108;2022-09-21T10:05:46;16.40;97.00
6792;DHT22;3433;48.730;9.108;2022-09-21T10:08:42;17.00;96.70
6792;DHT22;3433;48.730;9.108;2022-09-21T10:11:36;17.10;95.10
6792;DHT22;3433;48.730;9.108;2022-09-21T10:14:27;16.90;95.00
6792;DHT22;3433;48.730;9.108;2022-09-21T10:17:16;17.20;94.80
6792;DHT22;3433;48.730;9.108;2022-09-21T10:20:06;16.90;95.10
6792;DHT22;3433;48.730;9.108;2022-09-21T10:22:54;17.10;94.80
6792;DHT22;3433;48.730;9.108;2022-09-21T10:25:42;16.70;93.80
6792;DHT22;3433;48.730;9.108;2022-09-21T10:28:29;16.80;94.10
6792;DHT22;3433;48.730;9.108;2022-09-21T10:31:22;16.70;93.90
6792;DHT22;3433;48.730;9.108;2022-09-21T10:34:12;16.60;95.30
6792;DHT22;3433;48.730;9.108;2022-09-21T10:37:01;16.70;95.70
6792;DHT22;3433;48.730;9.108;2022-09-21T10:39:49;16.30;94.10
6792;DHT22;3433;48.730;9.108;2022-09-21T10:42:41;16.40;95.50
6792;DHT22;3433;48.730;9.108;2022-09-21T10:45:29;16.30;94.90
6792;DHT22;3433;48.730;9.108;2022-09-21T10:48:21;16.00;94.70
6792;DHT22;3433;48.730;9.108;2022-09-21T10:51:20;15.80;94.60
6792;DHT22;3433;48.730;9.108;2022-09-21T10:54:17;15.80;95.70
6792;DHT22;3433;48.730;9.108;2022-09-21T10:57:08;15.80;95.70
6792;DHT22;3433;48.730;9.108;2022-09-21T10:59:56;16.00;95.00
6792;DHT22;3433;48.730;9.108;2022-09-21T11:02:44;16.10;95.10
6792;DHT22;3433;48.730;9.108;2022-09-21T11:05:36;16.20;94.80
6792;DHT22;3433;48.730;9.108;2022-09-21T11:08:29;16.90;95.20
6792;DHT22;3433;48.730;9.108;2022-09-21T11:11:31;16.70;93.80
6792;DHT22;3433;48.730;9.108;2022-09-21T11:14:35;17.30;95.10
6792;DHT22;3433;48.730;9.108;2022-09-21T11:17:33;17.80;95.00
6792;DHT22;3433;48.730;9.108;2022-09-21T11:20:45;17.90;93.20
6792;DHT22;3433;48.730;9.108;2022-09-21T11:23:43;18.10;92.30
6792;DHT22;3433;48.730;9.108;2022-09-21T11:26:36;18.30;92.90
6792;DHT22;3433;48.730;9.108;2022-09-21T11:29:30;17.80;92.60
6792;DHT22;3433;48.730;9.108;2022-09-21T11:32:32;18.30;93.10
6792;DHT22;3433;48.730;9.108;2022-09-21T11:35:40;18.50;91.80
6792;DHT22;3433;48.730;9.108;2022-09-21T11:38:38;18.80;92.60
6792;DHT22;3433;48.730;9.108;2022-09-21T11:41:44;18.00;90.30
6792;DHT22;3433;48.730;9.108;2022-09-21T11:44:43;18.20;91.40
6792;DHT22;3433;48.730;9.108;2022-09-21T11:47:53;18.30;91.10
6792;DHT22;3433;48.730;9.108;2022-09-21T11:50:54;18.70;90.50
6792;DHT22;3433;48.730;9.108;2022-09-21T11:54:03;18.40;89.40
6792;DHT22;3433;48.730;9.108;2022-09-21T11:56:55;18.70;91.00
6792;DHT22;3433;48.730;9.108;2022-09-21T12:00:06;18.80;91.00
6792;DHT22;3433;48.730;9.108;2022-09-21T12:06:32;19.00;92.90
6792;DHT22;3433;48.730;9.108;2022-09-21T12:09:45;18.70;91.50
6792;DHT22;3433;48.730;9.108;2022-09-21T12:12:39;18.70;91.80
6792;DHT22;3433;48.730;9.108;2022-09-21T12:15:31;19.00;91.10
6792;DHT22;3433;48.730;9.108;2022-09-21T12:18:27;19.20;93.30
6792;DHT22;3433;48.730;9.108;2022-09-21T12:21:20;18.80;92.40
6792;DHT22;3433;48.730;9.108;2022-09-21T12:24:15;19.00;92.30
6792;DHT22;3433;48.730;9.108;2022-09-21T12:27:08;19.40;91.20
6792;DHT22;3433;48.730;9.108;2022-09-21T12:30:02;19.30;91.20
6792;DHT22;3433;48.730;9.108;2022-09-21T12:32:54;19.70;92.10
6792;DHT22;3433;48.730;9.108;2022-09-21T12:35:44;20.10;90.30
6792;DHT22;3433;48.730;9.108;2022-09-21T12:38:35;20.40;87.00
6792;DHT22;3433;48.730;9.108;2022-09-21T12:41:33;20.10;88.50
6792;DHT22;3433;48.730;9.108;2022-09-21T12:44:31;19.40;89.40
6792;DHT22;3433;48.730;9.108;2022-09-21T12:47:46;19.10;88.10
6792;DHT22;3433;48.730;9.108;2022-09-21T12:50:51;18.80;87.10
6792;DHT22;3433;48.730;9.108;2022-09-21T12:53:48;18.40;87.00
6792;DHT22;3433;48.730;9.108;2022-09-21T12:56:47;18.30;88.50
6792;DHT22;3433;48.730;9.108;2022-09-21T12:59:44;18.40;90.80
6792;DHT22;3433;48.730;9.108;2022-09-21T13:02:41;18.40;87.70
6792;DHT22;3433;48.730;9.108;2022-09-21T13:05:35;18.00;87.80
6792;DHT22;3433;48.730;9.108;2022-09-21T13:08:26;17.90;90.50
6792;DHT22;3433;48.730;9.108;2022-09-21T13:11:16;17.50;87.90
6792;DHT22;3433;48.730;9.108;2022-09-21T13:14:10;17.40;88.60
6792;DHT22;3433;48.730;9.108;2022-09-21T13:16:59;17.40;90.20
6792;DHT22;3433;48.730;9.108;2022-09-21T13:19:56;17.40;89.60
6792;DHT22;3433;48.730;9.108;2022-09-21T13:22:44;17.40;90.90
6792;DHT22;3433;48.730;9.108;2022-09-21T13:25:33;18.10;91.20
6792;DHT22;3433;48.730;9.108;2022-09-21T13:28:39;18.80;91.20
6792;DHT22;3433;48.730;9.108;2022-09-21T13:31:56;18.90;86.50
6792;DHT22;3433;48.730;9.108;2022-09-21T13:34:44;18.90;90.00
6792;DHT22;3433;48.730;9.108;2022-09-21T13:37:32;18.30;84.40
6792;DHT22;3433;48.730;9.108;2022-09-21T13:40:37;17.90;84.10
6792;DHT22;3433;48.730;9.108;2022-09-21T13:43:46;17.50;88.10
6792;DHT22;3433;48.730;9.108;2022-09-21T13:46:50;17.50;89.40
6792;DHT22;3433;48.730;9.108;2022-09-21T13:49:59;17.50;88.50
6792;DHT22;3433;48.730;9.108;2022-09-21T13:52:52;17.30;88.40
6792;DHT22;3433;48.730;9.108;2022-09-21T13:55:51;17.20;86.80
6792;DHT22;3433;48.730;9.108;2022-09-21T13:58:44;17.10;88.40
6792;DHT22;3433;48.730;9.108;2022-09-21T14:01:34;17.00;89.20
6792;DHT22;3433;48.730;9.108;2022-09-21T14:04:25;17.30;90.10
6792;DHT22;3433;48.730;9.108;2022-09-21T14:07:13;17.10;90.30
6792;DHT22;3433;48.730;9.108;2022-09-21T14:10:04;17.20;90.30
6792;DHT22;3433;48.730;9.108;2022-09-21T14:12:53;17.10;90.60
6792;DHT22;3433;48.730;9.108;2022-09-21T14:15:40;17.00;88.40
6792;DHT22;3433;48.730;9.108;2022-09-21T14:18:37;17.30;88.50
6792;DHT22;3433;48.730;9.108;2022-09-21T14:21:26;17.20;87.20
6792;DHT22;3433;48.730;9.108;2022-09-21T14:24:19;17.00;89.00
6792;DHT22;3433;48.730;9.108;2022-09-21T14:27:15;17.20;90.60
6792;DHT22;3433;48.730;9.108;2022-09-21T14:30:15;17.00;87.70
6792;DHT22;3433;48.730;9.108;2022-09-21T14:33:21;16.90;85.20
6792;DHT22;3433;48.730;9.108;2022-09-21T14:36:14;17.20;84.40
6792;DHT22;3433;48.730;9.108;2022-09-21T14:39:12;17.10;86.30
6792;DHT22;3433;48.730;9.108;2022-09-21T14:42:08;16.80;87.90
6792;DHT22;3433;48.730;9.108;2022-09-21T14:44:58;17.20;87.40
6792;DHT22;3433;48.730;9.108;2022-09-21T14:48:01;16.90;82.80
6792;DHT22;3433;48.730;9.108;2022-09-21T14:50:54;17.40;86.30
6792;DHT22;3433;48.730;9.108;2022-09-21T14:54:02;17.70;83.50
6792;DHT22;3433;48.730;9.108;2022-09-21T14:57:11;17.40;86.30
6792;DHT22;3433;48.730;9.108;2022-09-21T15:00:10;17.30;85.00
6792;DHT22;3433;48.730;9.108;2022-09-21T15:03:19;17.60;86.30
6792;DHT22;3433;48.730;9.108;2022-09-21T15:06:19;18.00;85.70
6792;DHT22;3433;48.730;9.108;2022-09-21T15:09:39;18.40;86.00
6792;DHT22;3433;48.730;9.108;2022-09-21T15:12:55;18.00;84.30
6792;DHT22;3433;48.730;9.108;2022-09-21T15:15:50;18.30;83.90
6792;DHT22;3433;48.730;9.108;2022-09-21T15:18:45;18.30;83.70
6792;DHT22;3433;48.730;9.108;2022-09-21T15:21:32;18.50;85.60
6792;DHT22;3433;48.730;9.108;2022-09-21T15:24:26;18.20;81.60
6792;DHT22;3433;48.730;9.108;2022-09-21T15:27:15;18.00;82.00
6792;DHT22;3433;48.730;9.108;2022-09-21T15:30:05;17.40;82.60
6792;DHT22;3433;48.730;9.108;2022-09-21T15:32:54;17.40;82.60
6792;DHT22;3433;48.730;9.108;2022-09-21T15:35:48;17.50;83.90
6792;DHT22;3433;48.730;9.108;2022-09-21T15:38:46;17.30;83.40
6792;DHT22;3433;48.730;9.108;2022-09-21T15:41:40;17.60;82.40
6792;DHT22;3433;48.730;9.108;2022-09-21T15:44:31;17.20;79.70
6792;DHT22;3433;48.730;9.108;2022-09-21T15:47:33;17.20;81.40
6792;DHT22;3433;48.730;9.108;2022-09-21T15:50:20;17.30;84.00
6792;DHT22;3433;48.730;9.108;2022-09-21T15:53:27;17.30;81.50
6792;DHT22;3433;48.730;9.108;2022-09-21T15:56:19;16.90;81.10
6792;DHT22;3433;48.730;9.108;2022-09-21T15:59:12;17.00;81.20
6792;DHT22;3433;48.730;9.108;2022-09-21T16:02:10;16.90;83.20
6792;DHT22;3433;48.730;9.108;2022-09-21T16:05:06;16.80;81.70
6792;DHT22;3433;48.730;9.108;2022-09-21T16:08:04;16.60;83.10
6792;DHT22;3433;48.730;9.108;2022-09-21T16:10:52;16.70;83.20
6792;DHT22;3433;48.730;9.108;2022-09-21T16:14:03;16.60;82.10
6792;DHT22;3433;48.730;9.108;2022-09-21T16:17:26;16.50;81.10
6792;DHT22;3433;48.730;9.108;2022-09-21T16:20:19;16.10;80.90
6792;DHT22;3433;48.730;9.108;2022-09-21T16:23:20;16.20;82.80
6792;DHT22;3433;48.730;9.108;2022-09-21T16:26:22;16.00;81.40
6792;DHT22;3433;48.730;9.108;2022-09-21T16:29:19;15.90;83.90
6792;DHT22;3433;48.730;9.108;2022-09-21T16:32:20;15.90;82.50
6792;DHT22;3433;48.730;9.108;2022-09-21T16:35:22;15.90;84.30
6792;DHT22;3433;48.730;9.108;2022-09-21T16:38:11;15.80;83.40
6792;DHT22;3433;48.730;9.108;2022-09-21T16:41:01;16.20;88.80
6792;DHT22;3433;48.730;9.108;2022-09-21T16:43:48;16.20;90.10
6792;DHT22;3433;48.730;9.108;2022-09-21T16:46:35;16.50;91.60
6792;DHT22;3433;48.730;9.108;2022-09-21T16:49:24;16.60;92.20
6792;DHT22;3433;48.730;9.108;2022-09-21T16:52:14;16.80;93.10
6792;DHT22;3433;48.730;9.108;2022-09-21T16:55:02;17.20;93.20
6792;DHT22;3433;48.730;9.108;2022-09-21T16:57:55;17.30;92.40
6792;DHT22;3433;48.730;9.108;2022-09-21T17:00:56;17.00;87.00
6792;DHT22;3433;48.730;9.108;2022-09-21T17:03:44;16.90;85.50
6792;DHT22;3433;48.730;9.108;2022-09-21T17:06:32;16.80;88.80
6792;DHT22;3433;48.730;9.108;2022-09-21T17:09:25;16.60;88.40
6792;DHT22;3433;48.730;9.108;2022-09-21T17:12:15;16.50;88.10
6792;DHT22;3433;48.730;9.108;2022-09-21T17:15:03;16.50;88.90
6792;DHT22;3433;48.730;9.108;2022-09-21T17:17:52;16.30;88.60
6792;DHT22;3433;48.730;9.108;2022-09-21T17:20:41;16.20;89.90
6792;DHT22;3433;48.730;9.108;2022-09-21T17:23:28;16.20;90.10
6792;DHT22;3433;48.730;9.108;2022-09-21T17:26:17;16.10;90.10
6792;DHT22;3433;48.730;9.108;2022-09-21T17:29:18;15.80;88.30
6792;DHT22;3433;48.730;9.108;2022-09-21T17:32:09;15.60;87.90
6792;DHT22;3433;48.730;9.108;2022-09-21T17:35:08;15.60;89.80
6792;DHT22;3433;48.730;9.108;2022-09-21T17:37:59;15.40;89.40
6792;DHT22;3433;48.730;9.108;2022-09-21T17:40:47;15.20;87.30
6792;DHT22;3433;48.730;9.108;2022-09-21T17:43:39;15.10;87.50
6792;DHT22;3433;48.730;9.108;2022-09-21T17:46:39;15.10;89.40
6792;DHT22;3433;48.730;9.108;2022-09-21T17:49:27;15.10;89.50
6792;DHT22;3433;48.730;9.108;2022-09-21T17:52:16;14.90;89.20
6792;DHT22;3433;48.730;9.108;2022-09-21T17:55:22;14.90;89.80
6792;DHT22;3433;48.730;9.108;2022-09-21T17:58:25;14.80;89.40
6792;DHT22;3433;48.730;9.108;2022-09-21T18:01:27;14.70;89.60
6792;DHT22;3433;48.730;9.108;2022-09-21T18:04:15;14.70;90.10
6792;DHT22;3433;48.730;9.108;2022-09-21T18:07:04;14.60;90.20
6792;DHT22;3433;48.730;9.108;2022-09-21T18:09:52;14.50;90.20
6792;DHT22;3433;48.730;9.108;2022-09-21T18:12:51;14.50;90.30
6792;DHT22;3433;48.730;9.108;2022-09-21T18:16:00;14.30;90.40
6792;DHT22;3433;48.730;9.108;2022-09-21T18:22:22;14.10;90.50
6792;DHT22;3433;48.730;9.108;2022-09-21T18:25:14;13.90;90.50
6792;DHT22;3433;48.730;9.108;2022-09-21T18:28:10;13.80;90.70
6792;DHT22;3433;48.730;9.108;2022-09-21T18:31:06;13.60;90.80
6792;DHT22;3433;48.730;9.108;2022-09-21T18:34:01;13.50;90.90
6792;DHT22;3433;48.730;9.108;2022-09-21T18:36:56;13.40;91.00
6792;DHT22;3433;48.730;9.108;2022-09-21T18:39:53;13.30;91.10
6792;DHT22;3433;48.730;9.108;2022-09-21T18:42:48;13.20;91.20
6792;DHT22;3433;48.730;9.108;2022-09-21T18:45:40;13.10;91.30
6792;DHT22;3433;48.730;9.108;2022-09-21T18:48:43;13.00;91.40
6792;DHT22;3433;48.730;9.108;2022-09-21T18:51:37;12.80;91.30
6792;DHT22;3433;48.730;9.108;2022-09-21T18:54:28;12.70;91.40
6792;DHT22;3433;48.730;9.108;2022-09-21T18:57:17;12.60;91.40
6792;DHT22;3433;48.730;9.108;2022-09-21T19:00:06;12.50;91.60
6792;DHT22;3433;48.730;9.108;2022-09-21T19:02:57;12.40;91.70
6792;DHT22;3433;48.730;9.108;2022-09-21T19:05:52;12.30;91.70
6792;DHT22;3433;48.730;9.108;2022-09-21T19:08:46;12.20;91.80
6792;DHT22;3433;48.730;9.108;2022-09-21T19:11:42;12.10;91.70
6792;DHT22;3433;48.730;9.108;2022-09-21T19:14:40;12.10;92.00
6792;DHT22;3433;48.730;9.108;2022-09-21T19:17:42;12.00;92.00